sensor_id;sensor_type;location;lat;lon;timestamp;pressure;altitude;pressure_sealevel;temperature;humidity
7760;BME280;3924;48.830;9.262;2023-05-21T00:02:18;98175.88;;;16.70;73.43
7760;BME280;3924;48.830;9.262;2023-05-21T00:04:46;98175.38;;;16.67;73.36
7760;BME280;3924;48.830;9.262;2023-05-21T00:07:13;98173.78;;;16.66;73.47
7760;BME280;3924;48.830;9.262;2023-05-21T00:09:40;98169.91;;;16.67;73.50
7760;BME280;3924;48.830;9.262;2023-05-21T00:12:07;98168.78;;;16.68;73.70
7760;BME280;3924;48.830;9.262;2023-05-21T00:14:34;98163.63;;;16.67;73.74
7760;BME280;3924;48.830;9.262;2023-05-21T00:17:01;98173.78;;;16.66;73.94
7760;BME280;3924;48.830;9.262;2023-05-21T00:19:28;98172.19;;;16.65;74.00
7760;BME280;3924;48.830;9.262;2023-05-21T00:21:54;98165.13;;;16.64;73.57
7760;BME280;3924;48.830;9.262;2023-05-21T00:24:21;98163.97;;;16.65;73.98
7760;BME280;3924;48.830;9.262;2023-05-21T00:26:47;98160.00;;;16.63;74.05
7760;BME280;3924;48.830;9.262;2023-05-21T00:29:14;98152.94;;;16.62;74.27
7760;BME280;3924;48.830;9.262;2023-05-21T00:31:40;98159.22;;;16.62;74.47
7760;BME280;3924;48.830;9.262;2023-05-21T00:34:07;98155.69;;;16.62;74.28
7760;BME280;3924;48.830;9.262;2023-05-21T00:36:34;98153.72;;;16.62;74.46
7760;BME280;3924;48.830;9.262;2023-05-21T00:39:00;98151.44;;;16.64;74.44
7760;BME280;3924;48.830;9.262;2023-05-21T00:41:27;98147.13;;;16.63;74.49
7760;BME280;3924;48.830;9.262;2023-05-21T00:43:55;98148.72;;;16.64;74.63
7760;BME280;3924;48.830;9.262;2023-05-21T00:46:22;98140.94;;;16.66;74.56
7760;BME280;3924;48.830;9.262;2023-05-21T00:48:49;98144.81;;;16.65;74.55
7760;BME280;3924;48.830;9.262;2023-05-21T00:51:16;98145.41;;;16.59;74.78
7760;BME280;3924;48.830;9.262;2023-05-21T00:53:44;98137.09;;;16.55;75.09
7760;BME280;3924;48.830;9.262;2023-05-21T00:56:12;98138.22;;;16.54;74.88
7760;BME280;3924;48.830;9.262;2023-05-21T00:58:39;98135.50;;;16.54;75.29
7760;BME280;3924;48.830;9.262;2023-05-21T01:01:06;98138.22;;;16.54;75.19
7760;BME280;3924;48.830;9.262;2023-05-21T01:03:39;98138.22;;;16.54;75.10
7760;BME280;3924;48.830;9.262;2023-05-21T01:06:08;98135.81;;;16.53;75.21
7760;BME280;3924;48.830;9.262;2023-05-21T01:08:35;98138.00;;;16.47;75.39
7760;BME280;3924;48.830;9.262;2023-05-21T01:11:04;98137.06;;;16.43;75.48
7760;BME280;3924;48.830;9.262;2023-05-21T01:13:32;98139.47;;;16.45;75.79
7760;BME280;3924;48.830;9.262;2023-05-21T01:16:00;98135.59;;;16.46;75.59
7760;BME280;3924;48.830;9.262;2023-05-21T01:18:27;98134.78;;;16.45;75.68
7760;BME280;3924;48.830;9.262;2023-05-21T01:20:54;98133.88;;;16.41;75.76
7760;BME280;3924;48.830;9.262;2023-05-21T01:23:21;98126.78;;;16.40;75.93
7760;BME280;3924;48.830;9.262;2023-05-21T01:25:48;98127.50;;;16.37;75.92
7760;BME280;3924;48.830;9.262;2023-05-21T01:28:14;98130.22;;;16.37;76.00
7760;BME280;3924;48.830;9.262;2023-05-21T01:30:41;98124.31;;;16.35;76.13
7760;BME280;3924;48.830;9.262;2023-05-21T01:33:15;98130.91;;;16.34;76.00
7760;BME280;3924;48.830;9.262;2023-05-21T01:35:53;98133.53;;;16.30;76.13
7760;BME280;3924;48.830;9.262;2023-05-21T01:38:53;98129.06;;;16.26;76.39
7760;BME280;3924;48.830;9.262;2023-05-21T01:41:24;98123.84;;;16.21;76.34
7760;BME280;3924;48.830;9.262;2023-05-21T01:43:54;98126.09;;;16.19;76.55
7760;BME280;3924;48.830;9.262;2023-05-21T01:46:24;98120.88;;;16.13;76.38
7760;BME280;3924;48.830;9.262;2023-05-21T01:48:53;98127.13;;;16.14;76.66
7760;BME280;3924;48.830;9.262;2023-05-21T01:51:22;98121.97;;;16.12;76.66
7760;BME280;3924;48.830;9.262;2023-05-21T01:53:49;98124.94;;;16.07;76.83
7760;BME280;3924;48.830;9.262;2023-05-21T01:56:15;98122.56;;;16.06;76.92
7760;BME280;3924;48.830;9.262;2023-05-21T01:58:42;98123.56;;;16.01;77.02
7760;BME280;3924;48.830;9.262;2023-05-21T02:01:09;98121.63;;;16.02;77.03
7760;BME280;3924;48.830;9.262;2023-05-21T02:03:37;98116.97;;;16.02;77.09
7760;BME280;3924;48.830;9.262;2023-05-21T02:06:04;98118.09;;;16.01;77.04
7760;BME280;3924;48.830;9.262;2023-05-21T02:08:30;98119.25;;;16.00;77.47
7760;BME280;3924;48.830;9.262;2023-05-21T02:10:57;98115.72;;;16.00;77.32
7760;BME280;3924;48.830;9.262;2023-05-21T02:13:23;98118.75;;;15.98;77.56
7760;BME280;3924;48.830;9.262;2023-05-21T02:15:52;98112.19;;;15.99;77.46
7760;BME280;3924;48.830;9.262;2023-05-21T02:18:20;98110.56;;;15.98;77.77
7760;BME280;3924;48.830;9.262;2023-05-21T02:20:47;98117.16;;;15.97;77.73
7760;BME280;3924;48.830;9.262;2023-05-21T02:23:13;98112.50;;;15.98;77.84
7760;BME280;3924;48.830;9.262;2023-05-21T02:25:40;98112.84;;;15.96;77.80
7760;BME280;3924;48.830;9.262;2023-05-21T02:28:06;98120.59;;;15.94;77.77
7760;BME280;3924;48.830;9.262;2023-05-21T02:30:33;98108.72;;;15.90;78.02
7760;BME280;3924;48.830;9.262;2023-05-21T02:32:59;98111.00;;;15.88;78.09
7760;BME280;3924;48.830;9.262;2023-05-21T02:35:28;98112.59;;;15.89;77.99
7760;BME280;3924;48.830;9.262;2023-05-21T02:37:54;98112.59;;;15.89;78.22
7760;BME280;3924;48.830;9.262;2023-05-21T02:40:24;98113.06;;;15.91;78.04
7760;BME280;3924;48.830;9.262;2023-05-21T02:42:51;98111.94;;;15.92;78.17
7760;BME280;3924;48.830;9.262;2023-05-21T02:45:17;98114.19;;;15.90;78.10
7760;BME280;3924;48.830;9.262;2023-05-21T02:47:44;98111.81;;;15.89;78.31
7760;BME280;3924;48.830;9.262;2023-05-21T02:50:12;98106.88;;;15.82;78.36
7760;BME280;3924;48.830;9.262;2023-05-21T02:52:39;98106.78;;;15.78;78.40
7760;BME280;3924;48.830;9.262;2023-05-21T02:55:08;98113.69;;;15.76;78.60
7760;BME280;3924;48.830;9.262;2023-05-21T02:57:35;98110.63;;;15.77;78.51
7760;BME280;3924;48.830;9.262;2023-05-21T03:00:01;98111.75;;;15.76;78.42
7760;BME280;3924;48.830;9.262;2023-05-21T03:02:29;98108.25;;;15.76;78.48
7760;BME280;3924;48.830;9.262;2023-05-21T03:04:55;98112.81;;;15.72;78.56
7760;BME280;3924;48.830;9.262;2023-05-21T03:07:22;98108.00;;;15.69;78.83
7760;BME280;3924;48.830;9.262;2023-05-21T03:09:49;98105.94;;;15.66;78.94
7760;BME280;3924;48.830;9.262;2023-05-21T03:12:16;98100.00;;;15.64;78.85
7760;BME280;3924;48.830;9.262;2023-05-21T03:14:42;98104.53;;;15.59;78.99
7760;BME280;3924;48.830;9.262;2023-05-21T03:17:09;98092.66;;;15.55;79.35
7760;BME280;3924;48.830;9.262;2023-05-21T03:19:40;98093.34;;;15.52;79.25
7760;BME280;3924;48.830;9.262;2023-05-21T03:22:06;98095.59;;;15.50;79.15
7760;BME280;3924;48.830;9.262;2023-05-21T03:24:33;98090.13;;;15.50;79.28
7760;BME280;3924;48.830;9.262;2023-05-21T03:27:00;98094.00;;;15.49;79.52
7760;BME280;3924;48.830;9.262;2023-05-21T03:29:27;98086.16;;;15.48;79.32
7760;BME280;3924;48.830;9.262;2023-05-21T03:31:54;98093.88;;;15.46;79.29
7760;BME280;3924;48.830;9.262;2023-05-21T03:34:21;98094.69;;;15.46;79.67
7760;BME280;3924;48.830;9.262;2023-05-21T03:36:49;98094.53;;;15.43;79.54
7760;BME280;3924;48.830;9.262;2023-05-21T03:39:16;98093.09;;;15.45;79.60
7760;BME280;3924;48.830;9.262;2023-05-21T03:41:42;98089.88;;;15.43;79.57
7760;BME280;3924;48.830;9.262;2023-05-21T03:44:09;98094.44;;;15.39;79.66
7760;BME280;3924;48.830;9.262;2023-05-21T03:46:35;98096.22;;;15.35;79.70
7760;BME280;3924;48.830;9.262;2023-05-21T03:49:02;98092.59;;;15.31;79.87
7760;BME280;3924;48.830;9.262;2023-05-21T03:51:28;98092.25;;;15.32;79.87
7760;BME280;3924;48.830;9.262;2023-05-21T03:53:58;98102.03;;;15.33;80.01
7760;BME280;3924;48.830;9.262;2023-05-21T03:56:24;98095.09;;;15.36;80.00
7760;BME280;3924;48.830;9.262;2023-05-21T03:58:51;98100.53;;;15.36;79.99
7760;BME280;3924;48.830;9.262;2023-05-21T04:01:18;98104.41;;;15.35;80.12
7760;BME280;3924;48.830;9.262;2023-05-21T04:03:45;98102.81;;;15.34;79.92
7760;BME280;3924;48.830;9.262;2023-05-21T04:06:12;98109.09;;;15.35;80.13
7760;BME280;3924;48.830;9.262;2023-05-21T04:08:38;98110.56;;;15.32;79.91
7760;BME280;3924;48.830;9.262;2023-05-21T04:11:05;98112.16;;;15.33;80.17
7760;BME280;3924;48.830;9.262;2023-05-21T04:13:31;98113.63;;;15.30;80.29
7760;BME280;3924;48.830;9.262;2023-05-21T04:15:58;98116.03;;;15.32;80.27
7760;BME280;3924;48.830;9.262;2023-05-21T04:18:25;98118.75;;;15.32;80.35
7760;BME280;3924;48.830;9.262;2023-05-21T04:20:52;98115.75;;;15.25;80.39
7760;BME280;3924;48.830;9.262;2023-05-21T04:23:19;98120.53;;;15.28;80.12
7760;BME280;3924;48.830;9.262;2023-05-21T04:25:49;98123.72;;;15.30;80.50
7760;BME280;3924;48.830;9.262;2023-05-21T04:28:16;98124.66;;;15.34;80.31
7760;BME280;3924;48.830;9.262;2023-05-21T04:30:46;98128.34;;;15.38;80.38
7760;BME280;3924;48.830;9.262;2023-05-21T04:33:13;98134.28;;;15.40;80.41
7760;BME280;3924;48.830;9.262;2023-05-21T04:35:45;98137.44;;;15.42;80.18
7760;BME280;3924;48.830;9.262;2023-05-21T04:38:16;98138.41;;;15.46;80.71
7760;BME280;3924;48.830;9.262;2023-05-21T04:40:49;98134.63;;;15.51;80.35
7760;BME280;3924;48.830;9.262;2023-05-21T04:43:16;98138.66;;;15.53;80.46
7760;BME280;3924;48.830;9.262;2023-05-21T04:45:43;98132.50;;;15.56;80.34
7760;BME280;3924;48.830;9.262;2023-05-21T04:48:09;98135.72;;;15.58;80.02
7760;BME280;3924;48.830;9.262;2023-05-21T04:50:36;98147.59;;;15.63;80.04
7760;BME280;3924;48.830;9.262;2023-05-21T04:53:02;98148.53;;;15.67;80.06
7760;BME280;3924;48.830;9.262;2023-05-21T04:55:28;98143.53;;;15.69;79.97
7760;BME280;3924;48.830;9.262;2023-05-21T04:57:55;98146.25;;;15.69;80.02
7760;BME280;3924;48.830;9.262;2023-05-21T05:00:22;98141.91;;;15.68;80.07
7760;BME280;3924;48.830;9.262;2023-05-21T05:02:51;98148.53;;;15.67;80.15
7760;BME280;3924;48.830;9.262;2023-05-21T05:05:18;98145.13;;;15.70;79.86
7760;BME280;3924;48.830;9.262;2023-05-21T05:07:44;98153.53;;;15.65;79.87
7760;BME280;3924;48.830;9.262;2023-05-21T05:10:10;98146.13;;;15.65;79.79
7760;BME280;3924;48.830;9.262;2023-05-21T05:12:37;98155.59;;;15.68;79.95
7760;BME280;3924;48.830;9.262;2023-05-21T05:15:04;98145.59;;;15.72;79.97
7760;BME280;3924;48.830;9.262;2023-05-21T05:17:31;98145.59;;;15.72;80.00
7760;BME280;3924;48.830;9.262;2023-05-21T05:19:57;98144.91;;;15.75;80.14
7760;BME280;3924;48.830;9.262;2023-05-21T05:22:24;98145.84;;;15.79;80.06
7760;BME280;3924;48.830;9.262;2023-05-21T05:24:50;98147.22;;;15.85;80.07
7760;BME280;3924;48.830;9.262;2023-05-21T05:27:17;98138.81;;;15.90;79.94
7760;BME280;3924;48.830;9.262;2023-05-21T05:29:44;98141.66;;;15.94;79.86
7760;BME280;3924;48.830;9.262;2023-05-21T05:32:10;98147.25;;;15.97;79.87
7760;BME280;3924;48.830;9.262;2023-05-21T05:34:37;98151.47;;;15.95;79.67
7760;BME280;3924;48.830;9.262;2023-05-21T05:37:04;98148.59;;;15.91;79.95
7760;BME280;3924;48.830;9.262;2023-05-21T05:39:30;98153.06;;;15.96;79.91
7760;BME280;3924;48.830;9.262;2023-05-21T05:41:57;98148.63;;;16.03;79.81
7760;BME280;3924;48.830;9.262;2023-05-21T05:44:23;98148.44;;;16.08;79.57
7760;BME280;3924;48.830;9.262;2023-05-21T05:46:50;98141.59;;;16.14;79.57
7760;BME280;3924;48.830;9.262;2023-05-21T05:49:16;98150.94;;;16.13;79.25
7760;BME280;3924;48.830;9.262;2023-05-21T05:51:43;98147.88;;;16.15;79.50
7760;BME280;3924;48.830;9.262;2023-05-21T05:54:10;98155.88;;;16.20;79.43
7760;BME280;3924;48.830;9.262;2023-05-21T05:56:36;98148.22;;;16.26;79.29
7760;BME280;3924;48.830;9.262;2023-05-21T05:59:03;98154.16;;;16.40;79.03
7760;BME280;3924;48.830;9.262;2023-05-21T06:01:29;98145.50;;;16.50;78.83
7760;BME280;3924;48.830;9.262;2023-05-21T06:03:57;98152.38;;;16.56;78.85
7760;BME280;3924;48.830;9.262;2023-05-21T06:06:23;98150.28;;;16.65;78.51
7760;BME280;3924;48.830;9.262;2023-05-21T06:08:50;98150.56;;;16.73;78.43
7760;BME280;3924;48.830;9.262;2023-05-21T06:11:16;98157.41;;;16.79;78.34
7760;BME280;3924;48.830;9.262;2023-05-21T06:13:45;98143.47;;;16.84;78.13
7760;BME280;3924;48.830;9.262;2023-05-21T06:16:12;98156.03;;;16.73;78.35
7760;BME280;3924;48.830;9.262;2023-05-21T06:18:39;98160.72;;;16.72;78.43
7760;BME280;3924;48.830;9.262;2023-05-21T06:21:05;98154.44;;;16.72;78.56
7760;BME280;3924;48.830;9.262;2023-05-21T06:23:32;98159.25;;;16.75;78.28
7760;BME280;3924;48.830;9.262;2023-05-21T06:26:00;98157.63;;;16.74;78.44
7760;BME280;3924;48.830;9.262;2023-05-21T06:28:27;98157.84;;;16.81;78.32
7760;BME280;3924;48.830;9.262;2023-05-21T06:30:53;98157.06;;;16.80;78.37
7760;BME280;3924;48.830;9.262;2023-05-21T06:33:20;98157.63;;;16.74;78.31
7760;BME280;3924;48.830;9.262;2023-05-21T06:35:46;98156.94;;;16.77;78.21
7760;BME280;3924;48.830;9.262;2023-05-21T06:38:13;98153.78;;;16.75;78.12
7760;BME280;3924;48.830;9.262;2023-05-21T06:40:39;98150.91;;;16.71;78.28
7760;BME280;3924;48.830;9.262;2023-05-21T06:43:06;98152.16;;;16.74;78.43
7760;BME280;3924;48.830;9.262;2023-05-21T06:45:32;98157.06;;;16.80;78.31
7760;BME280;3924;48.830;9.262;2023-05-21T06:47:59;98154.88;;;16.86;78.10
7760;BME280;3924;48.830;9.262;2023-05-21T06:50:26;98157.97;;;16.84;78.13
7760;BME280;3924;48.830;9.262;2023-05-21T06:52:53;98159.56;;;16.85;78.23
7760;BME280;3924;48.830;9.262;2023-05-21T06:55:19;98164.38;;;16.88;78.16
7760;BME280;3924;48.830;9.262;2023-05-21T06:57:46;98166.28;;;16.88;77.86
7760;BME280;3924;48.830;9.262;2023-05-21T07:00:13;98158.31;;;16.95;78.16
7760;BME280;3924;48.830;9.262;2023-05-21T07:02:39;98163.44;;;17.09;77.63
7760;BME280;3924;48.830;9.262;2023-05-21T07:05:06;98159.19;;;17.11;77.83
7760;BME280;3924;48.830;9.262;2023-05-21T07:07:33;98163.06;;;17.22;77.53
7760;BME280;3924;48.830;9.262;2023-05-21T07:10:00;98163.94;;;17.27;77.37
7760;BME280;3924;48.830;9.262;2023-05-21T07:12:26;98169.34;;;17.23;77.43
7760;BME280;3924;48.830;9.262;2023-05-21T07:14:53;98174.81;;;17.23;77.66
7760;BME280;3924;48.830;9.262;2023-05-21T07:17:19;98168.53;;;17.22;77.51
7760;BME280;3924;48.830;9.262;2023-05-21T07:19:46;98168.28;;;17.28;77.47
7760;BME280;3924;48.830;9.262;2023-05-21T07:22:12;98170.34;;;17.31;77.59
7760;BME280;3924;48.830;9.262;2023-05-21T07:24:39;98172.94;;;17.39;77.33
7760;BME280;3924;48.830;9.262;2023-05-21T07:27:06;98173.47;;;17.57;77.03
7760;BME280;3924;48.830;9.262;2023-05-21T07:29:50;98173.69;;;17.64;76.78
7760;BME280;3924;48.830;9.262;2023-05-21T07:32:17;98161.97;;;17.80;76.63
7760;BME280;3924;48.830;9.262;2023-05-21T07:34:43;98159.63;;;17.94;76.19
7760;BME280;3924;48.830;9.262;2023-05-21T07:37:10;98164.78;;;18.11;75.91
7760;BME280;3924;48.830;9.262;2023-05-21T07:39:36;98170.84;;;18.33;75.33
7760;BME280;3924;48.830;9.262;2023-05-21T07:42:03;98159.16;;;18.36;75.26
7760;BME280;3924;48.830;9.262;2023-05-21T07:44:30;98158.53;;;18.42;75.14
7760;BME280;3924;48.830;9.262;2023-05-21T07:46:57;98158.09;;;18.56;75.00
7760;BME280;3924;48.830;9.262;2023-05-21T07:49:23;98159.19;;;18.67;74.65
7760;BME280;3924;48.830;9.262;2023-05-21T07:51:50;98155.53;;;18.79;74.51
7760;BME280;3924;48.830;9.262;2023-05-21T07:54:17;98160.56;;;18.93;74.23
7760;BME280;3924;48.830;9.262;2023-05-21T07:56:45;98157.69;;;19.05;73.76
7760;BME280;3924;48.830;9.262;2023-05-21T07:59:13;98159.28;;;19.06;73.66
7760;BME280;3924;48.830;9.262;2023-05-21T08:01:39;98153.72;;;19.02;73.48
7760;BME280;3924;48.830;9.262;2023-05-21T08:04:07;98153.53;;;19.11;73.17
7760;BME280;3924;48.830;9.262;2023-05-21T08:06:34;98154.25;;;19.27;73.16
7760;BME280;3924;48.830;9.262;2023-05-21T08:09:00;98148.41;;;19.48;72.52
7760;BME280;3924;48.830;9.262;2023-05-21T08:11:27;98160.69;;;19.70;72.01
7760;BME280;3924;48.830;9.262;2023-05-21T08:13:54;98163.78;;;19.88;71.66
7760;BME280;3924;48.830;9.262;2023-05-21T08:16:21;98149.47;;;20.21;70.79
7760;BME280;3924;48.830;9.262;2023-05-21T08:18:49;98147.06;;;20.42;70.44
7760;BME280;3924;48.830;9.262;2023-05-21T08:21:16;98152.00;;;20.53;69.88
7760;BME280;3924;48.830;9.262;2023-05-21T08:23:43;98150.00;;;20.30;70.24
7760;BME280;3924;48.830;9.262;2023-05-21T08:26:09;98158.28;;;20.30;69.86
7760;BME280;3924;48.830;9.262;2023-05-21T08:28:39;98156.94;;;20.43;69.71
7760;BME280;3924;48.830;9.262;2023-05-21T08:31:05;98154.78;;;20.53;69.45
7760;BME280;3924;48.830;9.262;2023-05-21T08:33:34;98156.16;;;20.66;69.30
7760;BME280;3924;48.830;9.262;2023-05-21T08:36:04;98162.31;;;20.82;68.64
7760;BME280;3924;48.830;9.262;2023-05-21T08:38:31;98160.84;;;20.88;68.36
7760;BME280;3924;48.830;9.262;2023-05-21T08:40:58;98162.84;;;20.91;68.24
7760;BME280;3924;48.830;9.262;2023-05-21T08:43:26;98159.78;;;20.96;67.88
7760;BME280;3924;48.830;9.262;2023-05-21T08:45:55;98163.97;;;20.87;67.95
7760;BME280;3924;48.830;9.262;2023-05-21T08:48:23;98166.88;;;20.97;67.57
7760;BME280;3924;48.830;9.262;2023-05-21T08:50:53;98159.28;;;21.17;67.07
7760;BME280;3924;48.830;9.262;2023-05-21T08:53:21;98159.97;;;21.11;66.74
7760;BME280;3924;48.830;9.262;2023-05-21T08:55:55;98154.66;;;20.95;67.10
7760;BME280;3924;48.830;9.262;2023-05-21T08:58:22;98158.22;;;20.99;67.00
7760;BME280;3924;48.830;9.262;2023-05-21T09:00:49;98158.81;;;21.12;66.69
7760;BME280;3924;48.830;9.262;2023-05-21T09:03:16;98164.44;;;21.19;66.35
7760;BME280;3924;48.830;9.262;2023-05-21T09:05:43;98164.63;;;21.07;66.51
7760;BME280;3924;48.830;9.262;2023-05-21T09:08:17;98167.53;;;20.87;66.76
7760;BME280;3924;48.830;9.262;2023-05-21T09:10:50;98164.44;;;20.92;66.73
7760;BME280;3924;48.830;9.262;2023-05-21T09:13:18;98162.13;;;20.94;66.40
7760;BME280;3924;48.830;9.262;2023-05-21T09:15:45;98162.13;;;20.94;66.19
7760;BME280;3924;48.830;9.262;2023-05-21T09:18:13;98167.66;;;20.98;66.05
7760;BME280;3924;48.830;9.262;2023-05-21T09:20:40;98169.22;;;20.95;66.07
7760;BME280;3924;48.830;9.262;2023-05-21T09:23:07;98166.16;;;21.00;65.86
7760;BME280;3924;48.830;9.262;2023-05-21T09:25:46;98164.59;;;21.03;65.49
7760;BME280;3924;48.830;9.262;2023-05-21T09:28:14;98169.16;;;21.18;65.33
7760;BME280;3924;48.830;9.262;2023-05-21T09:30:48;98175.06;;;21.43;64.82
7760;BME280;3924;48.830;9.262;2023-05-21T09:33:27;98162.69;;;21.64;64.20
7760;BME280;3924;48.830;9.262;2023-05-21T09:35:56;98162.94;;;21.85;63.60
7760;BME280;3924;48.830;9.262;2023-05-21T09:38:24;98167.38;;;21.93;63.47
7760;BME280;3924;48.830;9.262;2023-05-21T09:40:53;98152.56;;;22.08;63.03
7760;BME280;3924;48.830;9.262;2023-05-21T09:43:22;98168.41;;;22.11;62.72
7760;BME280;3924;48.830;9.262;2023-05-21T09:45:55;98154.34;;;22.24;62.48
7760;BME280;3924;48.830;9.262;2023-05-21T09:48:51;98169.59;;;22.51;61.83
7760;BME280;3924;48.830;9.262;2023-05-21T09:51:19;98162.28;;;22.77;61.33
7760;BME280;3924;48.830;9.262;2023-05-21T09:53:53;98150.16;;;22.92;60.72
7760;BME280;3924;48.830;9.262;2023-05-21T09:56:24;98158.28;;;22.71;61.12
7760;BME280;3924;48.830;9.262;2023-05-21T09:58:53;98151.78;;;22.93;60.44
7760;BME280;3924;48.830;9.262;2023-05-21T10:01:20;98149.16;;;23.18;59.91
7760;BME280;3924;48.830;9.262;2023-05-21T10:03:50;98147.25;;;23.33;59.58
7760;BME280;3924;48.830;9.262;2023-05-21T10:06:19;98148.53;;;23.53;59.27
7760;BME280;3924;48.830;9.262;2023-05-21T10:08:47;98145.88;;;23.67;58.95
7760;BME280;3924;48.830;9.262;2023-05-21T10:11:18;98149.13;;;23.91;58.47
7760;BME280;3924;48.830;9.262;2023-05-21T10:13:55;98138.06;;;24.09;57.75
7760;BME280;3924;48.830;9.262;2023-05-21T10:16:23;98150.00;;;24.23;57.19
7760;BME280;3924;48.830;9.262;2023-05-21T10:18:50;98149.56;;;24.04;57.61
7760;BME280;3924;48.830;9.262;2023-05-21T10:21:20;98149.94;;;24.06;57.31
7760;BME280;3924;48.830;9.262;2023-05-21T10:23:48;98137.28;;;24.05;57.31
7760;BME280;3924;48.830;9.262;2023-05-21T10:26:18;98143.19;;;23.92;57.76
7760;BME280;3924;48.830;9.262;2023-05-21T10:28:45;98141.16;;;23.79;57.85
7760;BME280;3924;48.830;9.262;2023-05-21T10:31:12;98139.13;;;23.61;58.05
7760;BME280;3924;48.830;9.262;2023-05-21T10:33:40;98145.78;;;23.53;58.50
7760;BME280;3924;48.830;9.262;2023-05-21T10:36:07;98138.66;;;23.52;57.95
7760;BME280;3924;48.830;9.262;2023-05-21T10:38:36;98144.44;;;23.26;58.33
7760;BME280;3924;48.830;9.262;2023-05-21T10:41:04;98139.88;;;22.89;59.16
7760;BME280;3924;48.830;9.262;2023-05-21T10:44:20;98131.06;;;22.73;59.41
7760;BME280;3924;48.830;9.262;2023-05-21T10:46:59;98138.22;;;22.81;59.04
7760;BME280;3924;48.830;9.262;2023-05-21T10:50:02;98133.09;;;22.79;58.91
7760;BME280;3924;48.830;9.262;2023-05-21T10:55:46;98141.66;;;23.18;57.81
7760;BME280;3924;48.830;9.262;2023-05-21T11:01:08;98125.34;;;22.99;58.03
7760;BME280;3924;48.830;9.262;2023-05-21T11:03:36;98128.56;;;23.08;57.77
7760;BME280;3924;48.830;9.262;2023-05-21T11:06:03;98129.50;;;23.34;57.17
7760;BME280;3924;48.830;9.262;2023-05-21T11:08:33;98122.16;;;23.73;56.38
7760;BME280;3924;48.830;9.262;2023-05-21T11:11:01;98119.88;;;23.97;55.83
7760;BME280;3924;48.830;9.262;2023-05-21T11:13:43;98121.44;;;24.09;55.40
7760;BME280;3924;48.830;9.262;2023-05-21T11:16:14;98123.06;;;24.13;55.42
7760;BME280;3924;48.830;9.262;2023-05-21T11:21:13;98116.72;;;24.09;55.16
7760;BME280;3924;48.830;9.262;2023-05-21T11:26:20;98120.66;;;23.97;55.45
7760;BME280;3924;48.830;9.262;2023-05-21T11:31:31;98122.66;;;24.04;55.25
7760;BME280;3924;48.830;9.262;2023-05-21T11:36:42;98109.63;;;24.29;55.01
7760;BME280;3924;48.830;9.262;2023-05-21T11:39:14;98109.66;;;24.37;54.56
7760;BME280;3924;48.830;9.262;2023-05-21T11:42:00;98108.03;;;24.25;54.40
7760;BME280;3924;48.830;9.262;2023-05-21T11:47:05;98108.81;;;24.25;54.64
7760;BME280;3924;48.830;9.262;2023-05-21T11:49:32;98109.66;;;24.37;54.06
7760;BME280;3924;48.830;9.262;2023-05-21T11:52:00;98108.88;;;24.47;54.05
7760;BME280;3924;48.830;9.262;2023-05-21T11:54:27;98106.47;;;24.49;54.08
7760;BME280;3924;48.830;9.262;2023-05-21T11:56:59;98103.69;;;24.56;53.31
7760;BME280;3924;48.830;9.262;2023-05-21T11:59:27;98108.84;;;24.54;53.85
7760;BME280;3924;48.830;9.262;2023-05-21T12:01:56;98101.34;;;24.58;53.47
7760;BME280;3924;48.830;9.262;2023-05-21T12:04:31;98104.09;;;24.40;53.71
7760;BME280;3924;48.830;9.262;2023-05-21T12:07:05;98104.91;;;24.34;53.88
7760;BME280;3924;48.830;9.262;2023-05-21T12:09:45;98105.66;;;24.31;54.00
7760;BME280;3924;48.830;9.262;2023-05-21T12:12:17;98108.81;;;24.18;54.01
7760;BME280;3924;48.830;9.262;2023-05-21T12:14:45;98114.72;;;24.06;54.04
7760;BME280;3924;48.830;9.262;2023-05-21T12:17:25;98104.47;;;24.17;53.80
7760;BME280;3924;48.830;9.262;2023-05-21T12:19:54;98106.06;;;24.33;53.35
7760;BME280;3924;48.830;9.262;2023-05-21T12:22:22;98109.66;;;24.33;53.36
7760;BME280;3924;48.830;9.262;2023-05-21T12:24:50;98102.09;;;24.26;53.39
7760;BME280;3924;48.830;9.262;2023-05-21T12:27:16;98102.91;;;24.31;53.29
7760;BME280;3924;48.830;9.262;2023-05-21T12:29:45;98112.44;;;24.40;52.98
7760;BME280;3924;48.830;9.262;2023-05-21T12:32:12;98107.28;;;24.46;52.88
7760;BME280;3924;48.830;9.262;2023-05-21T12:34:44;98102.50;;;24.50;52.86
7760;BME280;3924;48.830;9.262;2023-05-21T12:37:19;98111.63;;;24.61;52.59
7760;BME280;3924;48.830;9.262;2023-05-21T12:39:48;98106.88;;;24.62;52.54
7760;BME280;3924;48.830;9.262;2023-05-21T12:42:16;98103.72;;;24.42;52.49
7760;BME280;3924;48.830;9.262;2023-05-21T12:44:51;98103.31;;;24.47;52.64
7760;BME280;3924;48.830;9.262;2023-05-21T12:47:18;98110.06;;;24.60;52.26
7760;BME280;3924;48.830;9.262;2023-05-21T12:49:45;98106.47;;;24.63;52.03
7760;BME280;3924;48.830;9.262;2023-05-21T12:52:17;98113.19;;;24.76;51.82
7760;BME280;3924;48.830;9.262;2023-05-21T12:54:47;98112.41;;;24.83;51.45
7760;BME280;3924;48.830;9.262;2023-05-21T12:59:47;98108.00;;;25.03;50.65
7760;BME280;3924;48.830;9.262;2023-05-21T13:05:07;98112.75;;;25.17;49.71
7760;BME280;3924;48.830;9.262;2023-05-21T13:07:35;98107.59;;;25.26;49.40
7760;BME280;3924;48.830;9.262;2023-05-21T13:10:03;98110.34;;;25.33;49.31
7760;BME280;3924;48.830;9.262;2023-05-21T13:12:31;98106.38;;;25.34;49.08
7760;BME280;3924;48.830;9.262;2023-05-21T13:15:00;98103.56;;;25.38;48.65
7760;BME280;3924;48.830;9.262;2023-05-21T13:17:27;98105.56;;;25.30;48.59
7760;BME280;3924;48.830;9.262;2023-05-21T13:20:13;98104.81;;;25.26;48.26
7760;BME280;3924;48.830;9.262;2023-05-21T13:22:42;98100.44;;;25.25;48.18
7760;BME280;3924;48.830;9.262;2023-05-21T13:25:13;98102.44;;;25.21;48.41
7760;BME280;3924;48.830;9.262;2023-05-21T13:27:41;98106.00;;;25.32;48.03
7760;BME280;3924;48.830;9.262;2023-05-21T13:30:08;98092.81;;;25.51;47.68
7760;BME280;3924;48.830;9.262;2023-05-21T13:32:37;98095.94;;;25.63;47.10
7760;BME280;3924;48.830;9.262;2023-05-21T13:35:04;98099.88;;;25.73;46.92
7760;BME280;3924;48.830;9.262;2023-05-21T13:37:33;98108.16;;;25.80;46.66
7760;BME280;3924;48.830;9.262;2023-05-21T13:40:05;98102.16;;;25.92;46.46
7760;BME280;3924;48.830;9.262;2023-05-21T13:42:33;98104.50;;;25.94;46.41
7760;BME280;3924;48.830;9.262;2023-05-21T13:44:59;98104.50;;;25.94;46.41
7760;BME280;3924;48.830;9.262;2023-05-21T13:47:26;98103.69;;;26.01;46.03
7760;BME280;3924;48.830;9.262;2023-05-21T13:49:53;98094.13;;;26.09;45.94
7760;BME280;3924;48.830;9.262;2023-05-21T13:52:19;98101.94;;;26.21;45.67
7760;BME280;3924;48.830;9.262;2023-05-21T13:54:46;98097.22;;;26.18;45.59